Time;durP1;ratioP1;P1;durP2;ratioP2;P2;SDS_P1;SDS_P2;PMS_P1;PMS_P2;Temp;Humidity;BMP_temperature;BMP_pressure;BME280_temperature;BME280_humidity;BME280_pressure;Samples;Min_cycle;Max_cycle;Signal;HPM_P1;HPM_P2
2022/10/08 00:00:36;;;;;;;18.35;3.10;;;;;;;10.88;100.00;101703.06;5273479;28;20051;-73
2022/10/08 00:03:06;;;;;;;18.40;3.03;;;;;;;10.94;100.00;101694.41;5262434;28;20025;-72
2022/10/08 00:05:37;;;;;;;23.02;4.68;;;;;;;10.99;100.00;101692.13;5264611;28;20027;-74
2022/10/08 00:08:09;;;;;;;13.93;3.08;;;;;;;11.02;100.00;101697.19;5281353;28;20076;-73
2022/10/08 00:10:40;;;;;;;14.25;2.80;;;;;;;11.04;100.00;101692.53;5258520;28;20105;-75
2022/10/08 00:13:10;;;;;;;18.27;3.33;;;;;;;11.05;100.00;101696.91;5282870;28;20480;-72
2022/10/08 00:15:41;;;;;;;15.20;2.75;;;;;;;11.05;100.00;101688.88;5273754;28;20103;-73
2022/10/08 00:18:12;;;;;;;13.20;2.75;;;;;;;11.05;100.00;101685.34;5278483;28;20028;-73
2022/10/08 00:20:42;;;;;;;11.80;2.83;;;;;;;11.05;100.00;101690.72;5264992;28;20024;-72
2022/10/08 00:23:13;;;;;;;18.60;3.28;;;;;;;11.08;100.00;101685.03;5285466;28;20020;-73
2022/10/08 00:25:43;;;;;;;17.88;3.03;;;;;;;11.11;100.00;101690.09;5284638;28;20465;-73
2022/10/08 00:28:14;;;;;;;12.23;2.90;;;;;;;11.13;100.00;101693.47;5266499;28;20027;-75
2022/10/08 00:30:45;;;;;;;21.50;3.10;;;;;;;11.17;100.00;101683.28;5273815;28;20024;-73
2022/10/08 00:33:15;;;;;;;10.43;3.05;;;;;;;11.21;100.00;101684.69;5280646;28;20461;-73
2022/10/08 00:35:45;;;;;;;11.93;2.42;;;;;;;11.24;100.00;101689.75;5275267;28;20134;-74
2022/10/08 00:38:16;;;;;;;18.60;2.75;;;;;;;11.28;100.00;101688.44;5290120;27;20114;-74
2022/10/08 00:40:46;;;;;;;10.30;2.65;;;;;;;11.35;100.00;101678.81;5257701;28;20489;-73
2022/10/08 00:43:17;;;;;;;13.15;2.58;;;;;;;11.44;100.00;101683.25;5281162;28;20030;-72
2022/10/08 00:45:48;;;;;;;14.07;3.05;;;;;;;11.52;100.00;101680.66;5288972;28;20020;-73
2022/10/08 00:48:24;;;;;;;15.18;2.85;;;;;;;11.61;100.00;101679.75;5289725;27;20053;-72
2022/10/08 00:50:55;;;;;;;7.07;2.15;;;;;;;11.67;100.00;101676.44;5290230;28;20537;-72
2022/10/08 00:53:25;;;;;;;18.42;3.17;;;;;;;11.68;100.00;101686.19;5274261;28;20024;-72
2022/10/08 00:55:56;;;;;;;11.95;2.47;;;;;;;11.72;100.00;101678.69;5277441;28;20023;-73
2022/10/08 00:58:28;;;;;;;14.23;3.05;;;;;;;11.75;100.00;101677.53;5275374;28;20024;-73
2022/10/08 01:01:00;;;;;;;11.60;2.45;;;;;;;11.77;100.00;101680.91;5289676;28;20524;-73
2022/10/08 01:03:30;;;;;;;12.40;2.58;;;;;;;11.79;100.00;101686.97;5267882;28;20423;-73
2022/10/08 01:06:13;;;;;;;15.43;2.63;;;;;;;11.84;100.00;101687.38;5288485;28;20012;-73
2022/10/08 01:09:01;;;;;;;11.90;2.47;;;;;;;11.92;100.00;101682.09;5254773;28;20032;-73
2022/10/08 01:11:45;;;;;;;14.35;2.70;;;;;;;12.01;100.00;101683.84;5272835;28;20046;-73
2022/10/08 01:14:46;;;;;;;14.13;2.47;;;;;;;12.11;100.00;101692.66;5289033;28;20028;-72
2022/10/08 01:17:36;;;;;;;15.07;2.63;;;;;;;12.23;100.00;101693.25;5248073;28;20032;-73
2022/10/08 01:20:28;;;;;;;14.00;3.13;;;;;;;12.31;100.00;101698.72;5255167;28;20491;-74
2022/10/08 01:23:08;;;;;;;19.23;3.75;;;;;;;12.38;100.00;101696.22;5285475;28;20362;-73
2022/10/08 01:26:04;;;;;;;9.80;1.90;;;;;;;12.43;100.00;101694.75;5288657;28;20031;-72
2022/10/08 01:28:41;;;;;;;15.05;2.50;;;;;;;12.49;100.00;101700.50;5258020;28;20115;-73
2022/10/08 01:31:23;;;;;;;12.23;2.67;;;;;;;12.53;100.00;101705.41;5268063;28;20068;-73
2022/10/08 01:33:59;;;;;;;17.27;2.88;;;;;;;12.56;100.00;101709.66;5268714;28;20374;-73
2022/10/08 01:36:35;;;;;;;13.45;2.35;;;;;;;12.58;100.00;101713.84;5278499;28;20400;-72
2022/10/08 01:39:10;;;;;;;13.60;2.40;;;;;;;12.63;100.00;101711.53;5281192;28;20103;-72
2022/10/08 01:41:45;;;;;;;23.23;3.00;;;;;;;12.65;100.00;101711.38;5257748;28;20028;-72
2022/10/08 01:44:25;;;;;;;11.25;2.70;;;;;;;12.67;100.00;101710.22;5287613;28;20023;-72
2022/10/08 01:46:59;;;;;;;11.57;2.88;;;;;;;12.66;100.00;101713.09;5275418;28;20110;-72
2022/10/08 01:49:39;;;;;;;13.65;2.58;;;;;;;12.67;100.00;101714.75;5279288;28;20030;-72
2022/10/08 01:52:16;;;;;;;12.43;2.60;;;;;;;12.53;100.00;101716.19;5272778;28;20499;-73
2022/10/08 01:54:50;;;;;;;18.42;3.17;;;;;;;12.36;100.00;101719.78;5274614;28;20032;-73
2022/10/08 01:57:22;;;;;;;11.25;3.35;;;;;;;12.24;100.00;101716.47;5262300;28;20018;-73
2022/10/08 01:59:59;;;;;;;17.40;3.28;;;;;;;12.09;100.00;101721.56;5274662;28;20024;-72
2022/10/08 02:02:29;;;;;;;27.88;3.83;;;;;;;12.01;100.00;101731.41;5274164;28;20462;-72
2022/10/08 02:05:11;;;;;;;14.38;3.53;;;;;;;11.92;100.00;101739.41;5265237;28;20458;-72
2022/10/08 02:07:44;;;;;;;13.88;3.80;;;;;;;11.83;100.00;101734.94;5267625;28;20051;-72
2022/10/08 02:10:22;;;;;;;19.25;3.83;;;;;;;11.81;100.00;101741.44;5261450;28;20473;-73
2022/10/08 02:12:53;;;;;;;18.17;3.97;;;;;;;11.75;100.00;101736.69;5267726;28;20020;-73
2022/10/08 02:16:02;;;;;;;18.73;3.38;;;;;;;11.72;100.00;101745.03;5275863;28;20024;-72
2022/10/08 02:18:38;;;;;;;15.55;3.50;;;;;;;11.69;100.00;101740.78;5261755;28;20032;-73
2022/10/08 02:21:18;;;;;;;15.02;3.20;;;;;;;11.70;100.00;101744.31;5275126;27;20112;-73
2022/10/08 02:23:57;;;;;;;14.77;3.15;;;;;;;11.67;100.00;101743.63;5275939;28;20028;-73
2022/10/08 02:26:39;;;;;;;21.90;4.13;;;;;;;11.71;100.00;101746.88;5280591;28;20393;-73
2022/10/08 02:29:16;;;;;;;14.48;4.03;;;;;;;11.71;100.00;101749.56;5261921;28;20454;-73
2022/10/08 02:31:55;;;;;;;13.52;3.80;;;;;;;11.71;100.00;101751.41;5267543;28;20031;-73
2022/10/08 02:34:31;;;;;;;14.70;3.97;;;;;;;11.71;100.00;101746.03;5264700;28;20028;-73
2022/10/08 02:37:23;;;;;;;15.10;3.85;;;;;;;11.68;100.00;101748.00;5281601;28;20427;-74
2022/10/08 02:40:01;;;;;;;18.60;4.60;;;;;;;11.68;100.00;101747.16;5277083;28;20456;-73
2022/10/08 02:42:34;;;;;;;16.80;4.22;;;;;;;11.68;100.00;101748.00;5255861;28;20060;-74
2022/10/08 02:45:06;;;;;;;14.85;4.28;;;;;;;11.70;100.00;101753.25;5279654;28;20023;-76
2022/10/08 02:47:40;;;;;;;15.52;4.00;;;;;;;11.68;100.00;101748.00;5280644;28;20085;-73
2022/10/08 02:50:17;;;;;;;18.63;4.18;;;;;;;11.70;100.00;101744.31;5266523;28;20340;-74
2022/10/08 02:52:50;;;;;;;16.33;4.22;;;;;;;11.69;100.00;101743.47;5266333;28;20016;-75
2022/10/08 02:55:38;;;;;;;16.20;4.15;;;;;;;11.70;100.00;101739.81;5283559;28;20031;-75
2022/10/08 02:58:11;;;;;;;11.25;3.95;;;;;;;11.67;100.00;101743.63;5274144;27;20028;-75
2022/10/08 03:00:53;;;;;;;16.60;3.83;;;;;;;11.65;100.00;101742.97;5278840;28;20024;-73
2022/10/08 03:03:36;;;;;;;13.95;4.43;;;;;;;11.60;100.00;101739.88;5257877;28;20058;-73
2022/10/08 03:06:09;;;;;;;16.45;4.53;;;;;;;11.60;100.00;101749.78;5278909;28;20026;-73
2022/10/08 03:08:43;;;;;;;12.77;4.60;;;;;;;11.57;100.00;101750.91;5282261;28;20066;-73
2022/10/08 03:11:14;;;;;;;24.13;5.25;;;;;;;11.55;100.00;101750.25;5261652;28;20389;-73
2022/10/08 03:13:47;;;;;;;18.10;5.10;;;;;;;11.51;100.00;101743.47;5277910;28;20019;-73
2022/10/08 03:16:22;;;;;;;15.82;4.50;;;;;;;11.47;100.00;101750.13;5269911;28;20024;-73
2022/10/08 03:18:57;;;;;;;23.83;4.85;;;;;;;11.41;100.00;101754.28;5276700;28;20389;-73
2022/10/08 03:21:29;;;;;;;16.35;4.45;;;;;;;11.36;100.00;101759.25;5286157;28;20023;-73
2022/10/08 03:23:59;;;;;;;15.98;4.80;;;;;;;11.31;100.00;101761.53;5275275;28;20030;-73
2022/10/08 03:26:29;;;;;;;15.27;4.90;;;;;;;11.23;100.00;101764.09;5272595;28;20031;-73
2022/10/08 03:29:00;;;;;;;19.08;5.25;;;;;;;11.17;100.00;101753.97;5259573;28;20058;-73
2022/10/08 03:31:31;;;;;;;15.38;4.60;;;;;;;11.09;100.00;101753.84;5287513;28;20075;-73
2022/10/08 03:34:01;;;;;;;19.98;4.72;;;;;;;11.01;100.00;101759.97;5284494;28;20575;-73
2022/10/08 03:36:32;;;;;;;19.17;5.35;;;;;;;10.95;100.00;101770.44;5273355;28;20031;-73
2022/10/08 03:39:02;;;;;;;22.75;4.93;;;;;;;10.88;100.00;101771.00;5283013;28;20103;-72
2022/10/08 03:41:33;;;;;;;18.33;5.80;;;;;;;10.83;100.00;101765.22;5261673;28;20111;-73
2022/10/08 03:44:06;;;;;;;20.33;5.50;;;;;;;10.80;100.00;101770.91;5270339;28;20089;-74
2022/10/08 03:46:37;;;;;;;18.98;5.40;;;;;;;10.76;100.00;101774.88;5286463;28;20480;-73
2022/10/08 03:49:07;;;;;;;15.55;5.18;;;;;;;10.74;100.00;101773.31;5265818;28;20058;-72
2022/10/08 03:51:38;;;;;;;16.17;6.55;;;;;;;10.72;100.00;101773.47;5265460;28;20476;-72
2022/10/08 03:54:08;;;;;;;13.65;5.45;;;;;;;10.70;100.00;101778.13;5272642;28;20030;-73
2022/10/08 03:56:39;;;;;;;24.15;5.72;;;;;;;10.70;100.00;101777.28;5270807;28;20051;-73
2022/10/08 03:59:09;;;;;;;16.92;5.80;;;;;;;10.61;100.00;101777.16;5265506;28;20108;-73
2022/10/08 04:01:40;;;;;;;13.50;5.72;;;;;;;10.53;100.00;101776.16;5267131;28;20265;-73
2022/10/08 04:04:10;;;;;;;21.05;6.85;;;;;;;10.48;100.00;101779.28;5257905;27;20495;-72
2022/10/08 04:06:41;;;;;;;19.02;6.13;;;;;;;10.46;100.00;101783.97;5268252;28;20039;-73
2022/10/08 04:09:11;;;;;;;17.17;7.00;;;;;;;10.42;100.00;101787.91;5273641;28;20555;-72
2022/10/08 04:11:41;;;;;;;18.50;6.55;;;;;;;10.38;100.00;101789.19;5276069;28;20024;-72
2022/10/08 04:14:12;;;;;;;25.13;7.28;;;;;;;10.33;100.00;101786.06;5276093;28;20028;-72
2022/10/08 04:16:42;;;;;;;17.70;7.10;;;;;;;10.31;100.00;101788.06;5267226;28;20469;-72
2022/10/08 04:19:13;;;;;;;21.83;7.43;;;;;;;10.28;100.00;101799.06;5264903;28;20042;-73
2022/10/08 04:21:43;;;;;;;25.30;6.90;;;;;;;10.23;100.00;101802.13;5279055;28;20028;-73
2022/10/08 04:24:14;;;;;;;38.05;9.95;;;;;;;10.28;100.00;101799.06;5264590;28;20380;-72
2022/10/08 04:26:44;;;;;;;29.42;9.25;;;;;;;10.25;100.00;101808.25;5268309;28;20015;-72
2022/10/08 04:29:15;;;;;;;29.23;8.75;;;;;;;10.24;100.00;101808.38;5259256;28;20088;-73
2022/10/08 04:31:45;;;;;;;23.45;7.95;;;;;;;10.22;100.00;101804.97;5274622;28;20020;-72
2022/10/08 04:34:17;;;;;;;25.27;7.68;;;;;;;10.16;100.00;101806.38;5284652;28;20201;-72
2022/10/08 04:36:47;;;;;;;22.63;7.90;;;;;;;10.13;100.00;101817.38;5265444;28;20051;-72
2022/10/08 04:39:18;;;;;;;25.92;8.88;;;;;;;10.11;100.00;101814.00;5276631;28;20048;-73
2022/10/08 04:41:48;;;;;;;30.77;9.50;;;;;;;10.07;100.00;101817.94;5252049;28;20033;-74
2022/10/08 04:44:19;;;;;;;19.05;7.70;;;;;;;10.05;100.00;101817.25;5270668;28;20149;-73
2022/10/08 04:46:49;;;;;;;19.67;8.27;;;;;;;10.05;100.00;101828.81;5271716;28;20462;-73
2022/10/08 04:49:20;;;;;;;28.45;8.40;;;;;;;10.03;100.00;101829.91;5272698;28;20533;-73
2022/10/08 04:51:50;;;;;;;24.77;8.15;;;;;;;10.01;100.00;101827.38;5270004;28;20120;-72
2022/10/08 04:54:21;;;;;;;27.65;9.90;;;;;;;9.98;100.00;101834.84;5273681;28;20028;-72
2022/10/08 04:56:51;;;;;;;21.10;8.77;;;;;;;9.93;100.00;101837.94;5285876;28;20031;-73
2022/10/08 04:59:21;;;;;;;25.33;7.75;;;;;;;9.86;100.00;101840.31;5286086;28;20039;-73
2022/10/08 05:01:58;;;;;;;31.98;9.30;;;;;;;9.86;100.00;101844.84;5281393;28;20028;-74
2022/10/08 05:04:28;;;;;;;24.75;9.02;;;;;;;9.83;100.00;101845.94;5268387;28;20023;-74
2022/10/08 05:06:59;;;;;;;31.73;9.75;;;;;;;9.82;100.00;101843.41;5279433;28;20492;-74
2022/10/08 05:09:29;;;;;;;32.47;10.20;;;;;;;9.81;100.00;101860.50;5264717;28;20019;-74
2022/10/08 05:12:00;;;;;;;26.92;8.43;;;;;;;9.74;100.00;101856.63;5263518;28;20020;-74
2022/10/08 05:14:30;;;;;;;35.70;9.05;;;;;;;9.70;100.00;101857.91;5263760;28;20085;-74
2022/10/08 05:17:01;;;;;;;30.90;9.05;;;;;;;9.67;100.00;101867.06;5266626;28;20473;-74
2022/10/08 05:19:31;;;;;;;29.40;9.48;;;;;;;9.66;100.00;101865.38;5271694;28;20026;-73
2022/10/08 05:22:01;;;;;;;29.80;10.05;;;;;;;9.60;100.00;101868.59;5289815;28;20102;-73
2022/10/08 05:24:32;;;;;;;31.10;8.80;;;;;;;9.54;100.00;101866.47;5275042;28;20106;-74
2022/10/08 05:27:03;;;;;;;33.00;9.15;;;;;;;9.53;100.00;101870.09;5272376;28;20062;-74
2022/10/08 05:29:33;;;;;;;23.40;8.43;;;;;;;9.49;100.00;101874.91;5266779;28;20416;-74
2022/10/08 05:32:04;;;;;;;35.97;10.32;;;;;;;9.46;100.00;101883.19;5281673;28;20538;-74
2022/10/08 05:34:34;;;;;;;27.15;9.98;;;;;;;9.45;100.00;101884.19;5281821;28;20016;-74
2022/10/08 05:37:05;;;;;;;32.72;9.82;;;;;;;9.44;100.00;101884.28;5268166;28;20481;-75
2022/10/08 05:39:35;;;;;;;29.48;9.50;;;;;;;9.45;100.00;101886.88;5267623;28;20429;-74
2022/10/08 05:42:06;;;;;;;23.67;9.65;;;;;;;9.41;100.00;101885.44;5266492;28;20503;-74
2022/10/08 05:44:36;;;;;;;32.03;9.55;;;;;;;9.38;100.00;101896.41;5280040;28;20764;-74
2022/10/08 05:47:06;;;;;;;27.48;9.82;;;;;;;9.33;100.00;101896.78;5284576;28;20031;-74
2022/10/08 05:49:37;;;;;;;38.67;11.07;;;;;;;9.31;100.00;101905.94;5278710;28;20027;-74
2022/10/08 05:52:07;;;;;;;47.25;10.70;;;;;;;9.30;100.00;101905.09;5285344;28;20536;-74
2022/10/08 05:54:38;;;;;;;36.92;10.25;;;;;;;9.32;100.00;101913.00;5276810;28;20115;-74
2022/10/08 05:57:08;;;;;;;35.28;9.65;;;;;;;9.33;100.00;101914.69;5286568;28;20159;-72
2022/10/08 05:59:39;;;;;;;25.75;9.30;;;;;;;9.31;100.00;101917.50;5287728;28;20114;-73
2022/10/08 06:02:10;;;;;;;29.77;9.68;;;;;;;9.29;100.00;101924.84;5285093;28;20141;-73
2022/10/08 06:04:40;;;;;;;32.40;9.85;;;;;;;9.30;100.00;101928.38;5259966;28;20035;-73
2022/10/08 06:07:11;;;;;;;29.15;9.98;;;;;;;9.29;100.00;101932.03;5280929;28;20019;-75
2022/10/08 06:09:43;;;;;;;29.15;9.93;;;;;;;9.30;100.00;101936.41;5263673;28;20063;-74
2022/10/08 06:12:14;;;;;;;44.25;10.30;;;;;;;9.31;100.00;101944.28;5267698;28;20046;-75
2022/10/08 06:14:44;;;;;;;43.80;10.43;;;;;;;9.35;100.00;101947.56;5266492;28;20024;-75
2022/10/08 06:17:15;;;;;;;39.65;10.55;;;;;;;9.39;100.00;101942.78;5267049;28;20030;-73
2022/10/08 06:19:45;;;;;;;31.15;9.60;;;;;;;9.43;100.00;101945.06;5267175;28;20106;-72
2022/10/08 06:22:15;;;;;;;27.38;9.20;;;;;;;9.51;100.00;101947.94;5267445;28;20110;-72
2022/10/08 06:24:46;;;;;;;31.58;9.15;;;;;;;9.57;100.00;101947.41;5285139;28;20070;-73
2022/10/08 06:27:16;;;;;;;25.35;9.43;;;;;;;9.62;100.00;101954.19;5275267;28;20378;-72
2022/10/08 06:29:47;;;;;;;29.20;8.57;;;;;;;9.65;100.00;101964.66;5271712;28;20035;-73
2022/10/08 06:32:17;;;;;;;29.65;9.05;;;;;;;9.71;100.00;101969.47;5274486;28;20439;-73
2022/10/08 06:34:48;;;;;;;25.55;8.63;;;;;;;9.75;100.00;101970.91;5282421;28;20066;-73
2022/10/08 06:37:18;;;;;;;25.70;8.52;;;;;;;9.83;100.00;101973.75;5267042;28;20031;-73
2022/10/08 06:39:48;;;;;;;41.00;9.20;;;;;;;9.92;100.00;101975.63;5256822;28;20031;-73
2022/10/08 06:42:19;;;;;;;38.72;9.15;;;;;;;10.03;100.00;101977.38;5251405;28;20032;-73
2022/10/08 06:44:49;;;;;;;24.13;7.93;;;;;;;10.09;100.00;101983.06;5277494;28;20098;-73
2022/10/08 06:47:20;;;;;;;30.35;8.45;;;;;;;10.19;100.00;101992.94;5269172;28;20027;-73
2022/10/08 06:49:50;;;;;;;29.27;7.63;;;;;;;10.37;100.00;101991.34;5278994;28;20028;-73
2022/10/08 06:52:20;;;;;;;20.67;7.78;;;;;;;10.72;100.00;101990.00;5287945;28;20026;-73
2022/10/08 06:54:51;;;;;;;30.02;8.07;;;;;;;11.00;100.00;101999.94;5286389;28;20668;-73
2022/10/08 06:57:21;;;;;;;21.08;6.53;;;;;;;11.40;100.00;102005.16;5266649;28;20545;-73
2022/10/08 06:59:53;;;;;;;16.58;5.68;;;;;;;11.83;100.00;102019.06;5267382;28;20034;-73
2022/10/08 07:02:24;;;;;;;19.05;5.05;;;;;;;12.29;100.00;102017.34;5274790;27;20110;-73
2022/10/08 07:04:54;;;;;;;25.00;5.38;;;;;;;12.95;100.00;102022.47;5252278;28;20039;-73
2022/10/08 07:07:25;;;;;;;20.83;4.57;;;;;;;13.38;100.00;102034.34;5285659;28;20495;-73
2022/10/08 07:09:55;;;;;;;20.48;4.93;;;;;;;13.80;100.00;102034.47;5268054;27;20483;-73
2022/10/08 07:12:25;;;;;;;11.65;3.50;;;;;;;13.71;100.00;102020.13;5264613;28;20017;-74
2022/10/08 07:14:56;;;;;;;16.05;3.75;;;;;;;13.86;100.00;102028.47;5268143;28;20465;-73
2022/10/08 07:17:28;;;;;;;17.60;3.85;;;;;;;13.95;100.00;102032.03;5284987;28;20475;-73
2022/10/08 07:19:58;;;;;;;17.80;4.25;;;;;;;14.15;100.00;102043.47;5265043;28;20028;-73
2022/10/08 07:22:28;;;;;;;11.60;3.70;;;;;;;14.48;100.00;102048.03;5264347;28;20496;-73
2022/10/08 07:25:00;;;;;;;13.52;3.60;;;;;;;14.65;100.00;102051.63;5263238;28;20472;-71
2022/10/08 07:27:30;;;;;;;16.20;3.40;;;;;;;14.75;100.00;102057.75;5257672;28;20100;-71
2022/10/08 07:30:01;;;;;;;13.63;3.55;;;;;;;14.74;100.00;102057.91;5263469;28;20115;-71
2022/10/08 07:32:31;;;;;;;11.73;3.83;;;;;;;14.83;100.00;102065.03;5266735;28;20078;-72
2022/10/08 07:35:02;;;;;;;11.93;3.20;;;;;;;15.08;100.00;102060.53;5277657;28;20081;-71
2022/10/08 07:37:32;;;;;;;14.75;3.78;;;;;;;14.90;100.00;102065.22;5278781;28;20047;-71
2022/10/08 07:40:03;;;;;;;13.93;4.00;;;;;;;15.35;100.00;102075.59;5251049;28;20028;-74
2022/10/08 07:42:34;;;;;;;13.00;2.72;;;;;;;15.22;100.00;102076.09;5261799;28;20027;-71
2022/10/08 07:45:05;;;;;;;12.32;3.90;;;;;;;15.52;100.00;102082.72;5262853;28;20032;-71
2022/10/08 07:47:35;;;;;;;6.90;2.85;;;;;;;15.84;100.00;102096.44;5277859;28;20150;-71
2022/10/08 07:50:08;;;;;;;24.35;4.15;;;;;;;15.88;100.00;102093.22;5276667;28;20073;-71
2022/10/08 07:52:38;;;;;;;14.98;3.30;;;;;;;15.95;100.00;102096.91;5263971;28;20470;-71
2022/10/08 07:55:09;;;;;;;15.57;2.97;;;;;;;16.07;100.00;102092.00;5278434;28;20076;-71
2022/10/08 07:57:40;;;;;;;19.00;3.20;;;;;;;15.73;100.00;102098.47;5273750;28;20015;-71
2022/10/08 08:00:11;;;;;;;11.25;2.95;;;;;;;16.13;100.00;102104.00;5266624;28;20028;-71
2022/10/08 08:02:42;;;;;;;14.20;3.40;;;;;;;16.30;100.00;102092.94;5274781;28;20030;-71
2022/10/08 08:05:12;;;;;;;12.98;3.70;;;;;;;16.30;100.00;102102.94;5272297;28;20024;-71
2022/10/08 08:07:43;;;;;;;12.43;3.45;;;;;;;16.85;100.00;102104.78;5276891;28;20023;-71
2022/10/08 08:10:14;;;;;;;16.48;4.05;;;;;;;16.92;100.00;102111.22;5266836;28;20016;-71
2022/10/08 08:12:45;;;;;;;16.17;3.53;;;;;;;17.44;100.00;102115.13;5273963;28;20077;-71
2022/10/08 08:15:16;;;;;;;11.00;3.40;;;;;;;17.23;100.00;102116.63;5264744;28;20039;-71
2022/10/08 08:17:48;;;;;;;22.48;3.38;;;;;;;17.19;100.00;102119.88;5278891;28;20578;-71
2022/10/08 08:20:18;;;;;;;14.27;3.30;;;;;;;16.98;100.00;102123.22;5272147;28;20028;-71
2022/10/08 08:22:49;;;;;;;14.68;3.53;;;;;;;17.29;100.00;102132.16;5276719;28;20016;-71
2022/10/08 08:25:19;;;;;;;17.85;3.30;;;;;;;17.55;100.00;102129.09;5270891;28;20013;-71
2022/10/08 08:27:50;;;;;;;11.57;2.72;;;;;;;17.95;100.00;102145.25;5265191;28;20023;-71
2022/10/08 08:30:20;;;;;;;11.63;2.63;;;;;;;18.16;100.00;102142.69;5270744;28;20031;-71
2022/10/08 08:32:51;;;;;;;17.92;3.40;;;;;;;18.19;100.00;102150.47;5272938;28;20034;-71
2022/10/08 08:35:21;;;;;;;10.93;2.35;;;;;;;18.22;100.00;102144.66;5268081;28;20120;-70
2022/10/08 08:37:52;;;;;;;15.50;2.97;;;;;;;17.97;100.00;102152.22;5266650;28;20085;-71
2022/10/08 08:40:22;;;;;;;15.73;2.15;;;;;;;18.02;100.00;102155.22;5267575;28;20076;-71
2022/10/08 08:42:55;;;;;;;11.13;2.75;;;;;;;18.48;100.00;102163.25;5267885;28;20532;-71
2022/10/08 08:45:34;;;;;;;10.68;2.28;;;;;;;18.23;100.00;102165.38;5270179;28;20020;-72
2022/10/08 08:48:17;;;;;;;12.65;2.35;;;;;;;18.16;100.00;102158.97;5271424;28;20024;-71
2022/10/08 08:50:52;;;;;;;15.85;2.78;;;;;;;18.42;100.00;102171.28;5264721;28;20028;-71
2022/10/08 08:53:23;;;;;;;8.07;1.88;;;;;;;18.19;100.00;102161.34;5269802;28;20019;-71
2022/10/08 08:55:57;;;;;;;9.70;2.05;;;;;;;18.44;100.00;102171.97;5281848;28;20034;-71
2022/10/08 08:58:44;;;;;;;8.70;2.07;;;;;;;18.01;100.00;102177.09;5278526;28;20085;-71
2022/10/08 09:01:31;;;;;;;4.78;1.73;;;;;;;18.26;100.00;102178.56;5282742;28;20027;-71
2022/10/08 09:04:08;;;;;;;8.30;1.85;;;;;;;18.40;100.00;102185.06;5269992;28;20035;-71
2022/10/08 09:06:39;;;;;;;9.60;1.98;;;;;;;18.60;100.00;102182.66;5281121;28;20043;-71
2022/10/08 09:09:32;;;;;;;11.82;2.05;;;;;;;17.88;100.00;102179.63;5266532;28;20165;-71
2022/10/08 09:12:16;;;;;;;10.07;1.52;;;;;;;17.41;100.00;102189.56;5276388;28;20444;-70
2022/10/08 09:14:52;;;;;;;9.15;1.90;;;;;;;17.56;100.00;102192.34;5267885;28;20032;-70
2022/10/08 09:17:29;;;;;;;10.30;1.55;;;;;;;17.59;100.00;102192.00;5275841;28;20020;-70
2022/10/08 09:20:01;;;;;;;7.38;1.45;;;;;;;17.74;100.00;102195.66;5276749;28;20020;-70
2022/10/08 09:22:37;;;;;;;7.32;1.88;;;;;;;17.73;100.00;102193.13;5283873;28;20018;-70
2022/10/08 09:25:15;;;;;;;10.60;1.90;;;;;;;17.78;100.00;102199.69;5274396;28;20417;-70
2022/10/08 09:27:45;;;;;;;7.70;1.75;;;;;;;17.74;100.00;102206.50;5275067;27;20393;-70
2022/10/08 09:30:39;;;;;;;9.93;2.40;;;;;;;17.80;100.00;102207.66;5277642;28;20028;-70
2022/10/08 09:33:15;;;;;;;7.85;1.90;;;;;;;17.15;100.00;102208.84;5279838;28;20103;-70
2022/10/08 09:35:47;;;;;;;;;;;;;;;16.61;100.00;102211.38;5270567;28;20028;-70
2022/10/08 09:38:25;;;;;;;7.97;1.80;;;;;;;16.07;100.00;102216.53;5274718;28;20299;-70
2022/10/08 09:41:18;;;;;;;10.23;1.67;;;;;;;16.03;100.00;102215.16;5274812;28;20032;-70
2022/10/08 09:44:24;;;;;;;10.68;1.70;;;;;;;16.08;100.00;102211.97;5272429;28;20025;-70
2022/10/08 09:47:04;;;;;;;7.18;1.45;;;;;;;16.34;100.00;102223.44;5271398;28;20114;-70
2022/10/08 09:49:37;;;;;;;7.18;1.45;;;;;;;16.08;100.00;102231.75;5271259;28;20020;-70
2022/10/08 09:52:18;;;;;;;8.50;2.03;;;;;;;16.24;100.00;102230.91;5273061;28;20016;-70
2022/10/08 09:54:54;;;;;;;8.82;1.70;;;;;;;16.32;100.00;102244.44;5277740;28;20028;-70
2022/10/08 09:57:24;;;;;;;8.48;1.50;;;;;;;16.30;100.00;102244.59;5271319;28;20505;-70
2022/10/08 10:00:04;;;;;;;7.82;1.48;;;;;;;16.25;100.00;102238.84;5272636;28;20012;-70
2022/10/08 10:02:36;;;;;;;5.53;1.48;;;;;;;16.01;100.00;102244.25;5268179;28;20020;-70
2022/10/08 10:05:21;;;;;;;11.52;1.63;;;;;;;15.76;100.00;102246.94;5267625;28;20024;-70
2022/10/08 10:07:53;;;;;;;5.40;1.60;;;;;;;15.60;100.00;102246.88;5271864;28;20059;-70
2022/10/08 10:10:29;;;;;;;6.00;1.50;;;;;;;15.30;100.00;102245.59;5270142;28;20516;-70
2022/10/08 10:13:03;;;;;;;6.80;1.10;;;;;;;15.07;100.00;102249.91;5269710;28;20424;-70
2022/10/08 10:15:47;;;;;;;9.87;1.50;;;;;;;14.87;100.00;102252.84;5267950;28;20421;-70
2022/10/08 10:18:28;;;;;;;12.70;1.63;;;;;;;15.16;100.00;102259.72;5272658;28;20017;-70
2022/10/08 10:21:01;;;;;;;8.23;1.45;;;;;;;15.47;100.00;102251.91;5273830;28;20080;-70
2022/10/08 10:23:45;;;;;;;5.57;1.20;;;;;;;15.95;100.00;102250.34;5266536;28;20016;-70
2022/10/08 10:26:22;;;;;;;6.68;1.30;;;;;;;16.14;100.00;102250.03;5273018;28;20024;-70
2022/10/08 10:29:01;;;;;;;11.52;1.38;;;;;;;16.35;100.00;102252.22;5272933;27;20501;-70
2022/10/08 10:31:53;;;;;;;6.63;1.50;;;;;;;16.74;100.00;102256.94;5271373;28;20104;-70
2022/10/08 10:34:26;;;;;;;7.35;1.23;;;;;;;16.93;100.00;102258.44;5265280;28;20051;-70
2022/10/08 10:36:59;;;;;;;5.57;1.20;;;;;;;17.49;100.00;102260.06;5274598;28;20088;-70
2022/10/08 10:40:09;;;;;;;6.07;1.00;;;;;;;17.90;100.00;102264.44;5271328;28;20019;-70
2022/10/08 10:43:05;;;;;;;5.60;1.20;;;;;;;17.90;100.00;102269.84;5276642;28;20496;-70
2022/10/08 10:45:38;;;;;;;4.35;1.42;;;;;;;17.33;100.00;102276.41;5273323;28;20016;-70
2022/10/08 10:48:13;;;;;;;6.60;1.40;;;;;;;17.02;100.00;102276.38;5275002;28;20122;-71
2022/10/08 10:51:30;;;;;;;12.80;1.67;;;;;;;16.78;100.00;102272.69;5278156;28;20053;-72
2022/10/08 10:54:25;;;;;;;4.10;1.15;;;;;;;16.33;100.00;102280.50;5246386;28;20441;-71
2022/10/08 10:57:03;;;;;;;5.63;1.17;;;;;;;16.03;100.00;102282.84;5272620;28;20071;-72
2022/10/08 11:00:17;;;;;;;5.50;1.17;;;;;;;15.89;100.00;102283.50;5264774;28;20323;-71
2022/10/08 11:03:05;;;;;;;8.65;1.20;;;;;;;16.20;100.00;102286.41;5265607;28;20138;-72
2022/10/08 11:05:38;;;;;;;3.55;1.15;;;;;;;16.64;100.00;102284.19;5276279;28;20012;-71
2022/10/08 11:08:43;;;;;;;17.10;1.80;;;;;;;16.71;100.00;102281.63;5276219;28;20413;-71
2022/10/08 11:11:24;;;;;;;8.63;1.13;;;;;;;16.81;100.00;102285.88;5272175;28;20386;-71
2022/10/08 11:13:58;;;;;;;5.13;0.85;;;;;;;16.90;98.58;102281.28;5267217;28;20118;-71
2022/10/08 11:16:43;;;;;;;3.15;0.90;;;;;;;17.02;100.00;102284.50;5272695;28;20031;-72
2022/10/08 11:19:26;;;;;;;5.47;1.10;;;;;;;17.23;100.00;102294.75;5275840;28;20035;-71
2022/10/08 11:22:14;;;;;;;7.10;1.30;;;;;;;17.32;100.00;102285.59;5277145;28;20041;-72
2022/10/08 11:25:09;;;;;;;7.88;1.17;;;;;;;17.65;100.00;102286.25;5278174;28;20201;-71
2022/10/08 11:28:06;;;;;;;6.57;1.20;;;;;;;17.77;96.51;102287.59;5264992;28;20410;-72
2022/10/08 11:31:06;;;;;;;6.57;1.00;;;;;;;18.01;94.61;102283.84;5267921;28;20031;-72
2022/10/08 11:33:38;;;;;;;6.05;1.17;;;;;;;18.19;90.96;102301.72;5275476;28;20028;-72
2022/10/08 11:36:25;;;;;;;8.25;1.33;;;;;;;17.75;87.47;102303.19;5264038;28;20031;-72
2022/10/08 11:39:19;;;;;;;5.93;1.05;;;;;;;17.13;87.95;102297.69;5276994;27;20047;-72
2022/10/08 11:42:07;;;;;;;6.28;1.52;;;;;;;16.65;89.88;102299.44;5269922;28;20047;-72
2022/10/08 11:44:38;;;;;;;5.78;0.93;;;;;;;16.53;97.71;102289.97;5272245;28;20364;-72
2022/10/08 11:47:41;;;;;;;3.50;0.93;;;;;;;16.71;100.00;102304.19;5274761;28;20031;-72